createdAt,value
2018-11-25T00:00:01.765Z,63.40
2018-11-25T00:03:06.501Z,63.10
2018-11-25T00:06:11.067Z,63.37
2018-11-25T00:09:15.644Z,63.47
2018-11-25T00:12:20.197Z,63.44
2018-11-25T00:15:24.815Z,63.14
2018-11-25T00:18:29.347Z,62.88
2018-11-25T00:21:33.996Z,63.25
2018-11-25T00:24:38.516Z,62.91
2018-11-25T00:27:43.228Z,63.54
2018-11-25T00:30:47.897Z,63.78
2018-11-25T00:33:52.423Z,64.47
2018-11-25T00:36:57.003Z,64.43
2018-11-25T00:40:01.574Z,64.24
2018-11-25T00:43:06.682Z,64.52
2018-11-25T00:46:11.200Z,64.72
2018-11-25T00:49:15.723Z,64.28
2018-11-25T00:52:20.512Z,64.83
2018-11-25T00:55:25.031Z,64.52
2018-11-25T00:58:29.737Z,64.95
2018-11-25T01:01:34.397Z,65.83
2018-11-25T01:04:39.002Z,64.84
2018-11-25T01:07:43.537Z,65.02
2018-11-25T01:10:48.121Z,64.56
2018-11-25T01:13:52.663Z,63.85
2018-11-25T01:16:57.187Z,64.47
2018-11-25T01:20:01.725Z,64.09
2018-11-25T01:23:06.660Z,64.44
2018-11-25T01:26:11.296Z,64.11
2018-11-25T01:29:15.821Z,64.08
2018-11-25T01:32:20.483Z,63.22
2018-11-25T01:35:25.077Z,63.70
2018-11-25T01:38:29.627Z,63.33
2018-11-25T01:41:34.192Z,63.04
2018-11-25T01:44:38.713Z,63.25
2018-11-25T01:47:43.324Z,62.46
2018-11-25T01:50:47.851Z,62.74
2018-11-25T01:53:52.391Z,62.89
2018-11-25T01:56:56.983Z,63.61
2018-11-25T02:00:01.553Z,63.68
2018-11-25T02:03:06.233Z,63.25
2018-11-25T02:06:10.792Z,63.45
2018-11-25T02:09:15.326Z,63.68
2018-11-25T02:12:19.935Z,63.76
2018-11-25T02:15:24.472Z,63.28
2018-11-25T02:18:29.024Z,64.18
2018-11-25T02:21:33.573Z,63.62
2018-11-25T02:24:38.104Z,63.59
2018-11-25T02:27:42.724Z,64.00
2018-11-25T02:30:47.425Z,63.62
2018-11-25T02:33:51.965Z,63.47
2018-11-25T02:36:56.550Z,63.68
2018-11-25T02:40:01.073Z,63.50
2018-11-25T02:43:05.739Z,63.20
2018-11-25T02:46:10.329Z,63.54
2018-11-25T02:49:14.873Z,63.56
2018-11-25T02:52:19.495Z,62.43
2018-11-25T02:55:24.955Z,62.74
2018-11-25T02:58:29.550Z,63.05
2018-11-25T03:01:34.114Z,63.07
2018-11-25T03:04:38.728Z,64.00
2018-11-25T03:07:43.357Z,63.06
2018-11-25T03:10:47.879Z,63.56
2018-11-25T03:13:52.466Z,63.43
2018-11-25T03:16:57.027Z,63.58
2018-11-25T03:20:01.601Z,63.13
2018-11-25T03:23:06.556Z,64.87
2018-11-25T03:26:11.232Z,63.42
2018-11-25T03:29:15.763Z,64.16
2018-11-25T03:32:20.415Z,63.52
2018-11-25T03:35:24.970Z,63.29
2018-11-25T03:38:29.555Z,63.57
2018-11-25T03:41:34.139Z,63.49
2018-11-25T03:44:38.792Z,63.21
2018-11-25T03:47:43.377Z,63.58
2018-11-25T03:50:47.917Z,63.58
2018-11-25T03:53:52.532Z,63.31
2018-11-25T03:56:57.057Z,63.48
2018-11-25T04:00:01.697Z,63.55
2018-11-25T04:03:06.360Z,63.53
2018-11-25T04:06:10.949Z,63.29
2018-11-25T04:09:15.549Z,63.40
2018-11-25T04:12:20.086Z,62.96
2018-11-25T04:15:24.856Z,63.26
2018-11-25T04:18:29.429Z,63.21
2018-11-25T04:21:33.961Z,62.83
2018-11-25T04:24:38.540Z,62.65
2018-11-25T04:27:43.125Z,62.62
2018-11-25T04:30:47.701Z,62.72
2018-11-25T04:33:52.228Z,62.97
2018-11-25T04:36:56.752Z,63.37
2018-11-25T04:40:01.326Z,63.63
2018-11-25T04:43:06.318Z,63.63
2018-11-25T04:46:10.862Z,63.72
2018-11-25T04:49:15.378Z,63.53
2018-11-25T04:52:19.971Z,63.60
2018-11-25T04:55:24.592Z,63.68
2018-11-25T04:58:29.537Z,63.65
2018-11-25T05:01:34.045Z,64.56
2018-11-25T05:04:38.569Z,64.09
2018-11-25T05:07:43.200Z,64.14
2018-11-25T05:10:47.832Z,63.95
2018-11-25T05:13:52.380Z,64.58
2018-11-25T05:16:57.000Z,66.26
2018-11-25T05:20:01.568Z,67.02
2018-11-25T05:23:06.581Z,65.92
2018-11-25T05:26:11.265Z,65.32
2018-11-25T05:29:15.814Z,64.59
2018-11-25T05:32:20.433Z,64.77
2018-11-25T05:35:24.955Z,64.26
2018-11-25T05:38:29.554Z,65.42
2018-11-25T05:41:34.137Z,66.47
2018-11-25T05:44:38.723Z,65.99
2018-11-25T05:47:43.304Z,65.57
2018-11-25T05:50:47.983Z,65.26
2018-11-25T05:53:52.508Z,65.42
2018-11-25T05:56:57.115Z,64.18
2018-11-25T06:00:01.657Z,64.25
2018-11-25T06:03:06.236Z,64.39
2018-11-25T06:06:10.829Z,64.92
2018-11-25T06:09:15.388Z,64.57
2018-11-25T06:12:19.935Z,65.58
2018-11-25T06:15:24.509Z,65.02
2018-11-25T06:18:29.056Z,65.66
2018-11-25T06:21:33.680Z,65.18
2018-11-25T06:24:38.206Z,64.57
2018-11-25T06:27:42.816Z,64.17
2018-11-25T06:30:47.356Z,71.14
2018-11-25T06:33:51.900Z,65.57
2018-11-25T06:36:56.513Z,64.23
2018-11-25T06:40:01.023Z,65.34
2018-11-25T06:43:06.033Z,64.73
2018-11-25T06:46:12.144Z,64.84
2018-11-25T06:49:16.764Z,64.59
2018-11-25T06:52:21.328Z,65.90
2018-11-25T06:55:25.908Z,67.10
2018-11-25T06:58:30.493Z,66.16
2018-11-25T07:01:35.111Z,65.95
2018-11-25T07:04:39.770Z,65.67
2018-11-25T07:07:44.376Z,65.28
2018-11-25T07:10:48.945Z,64.90
2018-11-25T07:13:53.487Z,64.55
2018-11-25T07:16:58.019Z,65.20
2018-11-25T07:20:02.605Z,65.03
2018-11-25T07:23:07.228Z,66.33
2018-11-25T07:26:11.771Z,65.23
2018-11-25T07:29:16.529Z,65.65
2018-11-25T07:32:21.050Z,65.29
2018-11-25T07:35:27.760Z,65.20
2018-11-25T07:38:32.313Z,64.36
2018-11-25T07:41:37.211Z,64.26
2018-11-25T07:44:41.840Z,65.53
2018-11-25T07:47:47.404Z,65.50
2018-11-25T07:50:51.997Z,65.79
2018-11-25T07:53:56.594Z,64.73
2018-11-25T07:57:01.159Z,63.81
2018-11-25T08:00:08.264Z,64.92
2018-11-25T08:03:12.978Z,63.62
2018-11-25T08:06:18.816Z,63.74
2018-11-25T08:09:24.784Z,62.44
2018-11-25T08:12:29.373Z,64.30
2018-11-25T08:15:36.104Z,63.16
2018-11-25T08:18:40.643Z,63.13
2018-11-25T08:21:45.291Z,62.94
2018-11-25T08:24:49.983Z,62.95
2018-11-25T08:27:54.748Z,61.49
2018-11-25T08:31:00.251Z,61.98
2018-11-25T08:34:04.864Z,62.00
2018-11-25T08:37:09.466Z,60.96
2018-11-25T08:40:15.975Z,60.89
2018-11-25T08:43:20.594Z,60.60
2018-11-25T08:46:25.190Z,60.62
2018-11-25T08:49:29.735Z,62.38
2018-11-25T08:52:34.275Z,60.42
2018-11-25T08:55:38.824Z,60.08
2018-11-25T08:58:43.385Z,62.03
2018-11-25T09:01:48.038Z,60.42
2018-11-25T09:04:52.588Z,59.46
2018-11-25T09:07:57.170Z,58.33
2018-11-25T09:11:01.798Z,58.15
2018-11-25T09:14:06.532Z,58.56
2018-11-25T09:17:11.118Z,58.37
2018-11-25T09:20:20.613Z,57.97
2018-11-25T09:23:25.218Z,58.10
2018-11-25T09:26:29.764Z,58.32
2018-11-25T09:29:34.364Z,57.79
2018-11-25T09:32:38.896Z,57.76
2018-11-25T09:35:43.521Z,57.41
2018-11-25T09:38:48.073Z,56.60
2018-11-25T09:41:52.636Z,57.82
2018-11-25T09:44:57.203Z,57.10
2018-11-25T09:48:01.736Z,56.21
2018-11-25T09:51:06.382Z,55.67
2018-11-25T09:54:10.992Z,55.81
2018-11-25T09:57:15.547Z,55.26
2018-11-25T10:00:21.308Z,55.26
2018-11-25T10:03:25.904Z,55.43
2018-11-25T10:06:30.486Z,56.06
2018-11-25T10:09:35.075Z,55.14
2018-11-25T10:12:39.688Z,55.15
2018-11-25T10:15:44.225Z,54.36
2018-11-25T10:18:48.761Z,53.53
2018-11-25T10:21:53.386Z,53.49
2018-11-25T10:24:58.038Z,53.91
2018-11-25T10:28:02.682Z,52.93
2018-11-25T10:31:07.328Z,53.48
2018-11-25T10:34:11.869Z,52.37
2018-11-25T10:37:16.467Z,51.89
2018-11-25T10:40:22.198Z,52.51
2018-11-25T10:43:26.770Z,53.43
2018-11-25T10:46:31.357Z,54.10
2018-11-25T10:49:35.889Z,53.55
2018-11-25T10:52:40.481Z,51.85
2018-11-25T10:55:45.080Z,52.26
2018-11-25T10:58:49.733Z,51.79
2018-11-25T11:01:59.624Z,52.24
2018-11-25T11:05:06.092Z,50.88
2018-11-25T11:08:11.032Z,51.30
2018-11-25T11:11:15.655Z,51.39
2018-11-25T11:14:20.200Z,51.18
2018-11-25T11:17:24.790Z,50.74
2018-11-25T11:20:29.399Z,51.04
2018-11-25T11:23:33.943Z,52.13
2018-11-25T11:26:38.545Z,52.34
2018-11-25T11:29:43.138Z,52.41
2018-11-25T11:32:48.965Z,52.88
2018-11-25T11:35:53.561Z,52.73
2018-11-25T11:38:58.084Z,52.80
2018-11-25T11:42:02.621Z,52.61
2018-11-25T11:45:11.344Z,51.97
2018-11-25T11:48:16.016Z,53.23
2018-11-25T11:51:25.501Z,54.57
2018-11-25T11:54:25.277Z,54.83
2018-11-25T11:57:30.939Z,54.68
2018-11-25T12:00:35.467Z,54.90
2018-11-25T12:03:40.092Z,55.00
2018-11-25T12:06:44.650Z,54.74
2018-11-25T12:09:49.233Z,54.44
2018-11-25T12:12:53.827Z,55.06
2018-11-25T12:15:58.391Z,55.56
2018-11-25T12:19:03.033Z,55.18
2018-11-25T12:22:07.637Z,55.55
2018-11-25T12:25:15.736Z,55.61
2018-11-25T12:28:20.350Z,55.68
2018-11-25T12:31:24.925Z,56.23
2018-11-25T12:34:29.486Z,56.57
2018-11-25T12:37:36.069Z,56.77
2018-11-25T12:40:38.716Z,57.13
2018-11-25T12:43:43.308Z,56.41
2018-11-25T12:46:47.867Z,56.74
2018-11-25T12:49:52.496Z,56.70
2018-11-25T12:52:57.216Z,56.57
2018-11-25T12:56:01.827Z,56.46
2018-11-25T12:59:06.552Z,56.33
2018-11-25T13:02:11.133Z,56.68
2018-11-25T13:05:15.760Z,56.64
2018-11-25T13:08:20.449Z,56.88
2018-11-25T13:11:25.063Z,57.76
2018-11-25T13:14:29.604Z,57.96
2018-11-25T13:17:34.502Z,57.60
2018-11-25T13:20:39.144Z,58.49
2018-11-25T13:23:43.733Z,58.36
2018-11-25T13:26:51.401Z,57.97
2018-11-25T13:29:55.957Z,57.95
2018-11-25T13:33:01.672Z,58.16
2018-11-25T13:36:08.505Z,57.74
2018-11-25T13:39:13.124Z,57.83
2018-11-25T13:42:17.814Z,57.35
2018-11-25T13:45:22.426Z,57.60
2018-11-25T13:48:27.096Z,57.22
2018-11-25T13:51:31.666Z,57.30
2018-11-25T13:54:36.927Z,57.47
2018-11-25T13:57:41.511Z,57.79
2018-11-25T14:00:48.687Z,57.69
2018-11-25T14:03:53.271Z,57.83
2018-11-25T14:06:57.870Z,57.62
2018-11-25T14:10:02.433Z,57.94
2018-11-25T14:13:07.512Z,58.21
2018-11-25T14:16:14.157Z,58.68
2018-11-25T14:19:18.772Z,58.45
2018-11-25T14:22:23.315Z,58.91
2018-11-25T14:25:28.225Z,58.78
2018-11-25T14:28:32.905Z,59.36
2018-11-25T14:31:37.548Z,59.60
2018-11-25T14:34:42.108Z,59.42
2018-11-25T14:37:46.796Z,59.37
2018-11-25T14:40:51.438Z,59.32
2018-11-25T14:43:56.200Z,60.33
2018-11-25T14:47:00.887Z,61.76
2018-11-25T14:50:08.167Z,61.16
2018-11-25T14:53:12.737Z,60.46
2018-11-25T14:56:17.398Z,60.88
2018-11-25T14:59:21.970Z,60.91
2018-11-25T15:02:26.591Z,61.36
2018-11-25T15:05:33.960Z,61.42
2018-11-25T15:08:38.608Z,61.25
2018-11-25T15:11:43.276Z,62.54
2018-11-25T15:14:47.896Z,62.27
2018-11-25T15:17:52.817Z,62.11
2018-11-25T15:20:57.559Z,61.47
2018-11-25T15:24:02.191Z,61.84
2018-11-25T15:27:07.483Z,61.83
2018-11-25T15:30:12.986Z,62.33
2018-11-25T15:33:17.636Z,63.15
2018-11-25T15:36:22.305Z,61.97
2018-11-25T15:39:26.973Z,61.29
2018-11-25T15:42:31.553Z,61.94
2018-11-25T15:45:36.473Z,62.36
2018-11-25T15:48:41.179Z,63.76
2018-11-25T15:51:45.764Z,62.84
2018-11-25T15:54:50.414Z,62.58
2018-11-25T15:57:55.051Z,62.62
2018-11-25T16:00:59.628Z,62.84
2018-11-25T16:04:04.366Z,62.90
2018-11-25T16:07:08.973Z,63.43
2018-11-25T16:10:14.404Z,63.19
2018-11-25T16:13:18.966Z,64.57
2018-11-25T16:16:24.473Z,63.16
2018-11-25T16:19:29.367Z,62.44
2018-11-25T16:22:33.912Z,62.52
2018-11-25T16:25:41.153Z,62.40
2018-11-25T16:28:47.577Z,62.54
2018-11-25T16:31:52.103Z,62.19
2018-11-25T16:34:56.729Z,62.99
2018-11-25T16:38:01.586Z,62.37
2018-11-25T16:41:06.776Z,62.63
2018-11-25T16:44:11.356Z,63.65
2018-11-25T16:47:16.004Z,62.79
2018-11-25T16:50:25.317Z,63.27
2018-11-25T16:53:25.188Z,64.02
2018-11-25T16:56:29.753Z,63.64
2018-11-25T16:59:34.343Z,62.99
2018-11-25T17:02:38.892Z,63.73
2018-11-25T17:05:48.257Z,63.16
2018-11-25T17:08:52.801Z,62.30
2018-11-25T17:11:57.396Z,61.78
2018-11-25T17:15:01.962Z,61.63
2018-11-25T17:18:06.711Z,61.82
2018-11-25T17:21:11.339Z,61.94
2018-11-25T17:24:15.936Z,61.27
2018-11-25T17:27:20.529Z,62.89
2018-11-25T17:30:25.129Z,62.52
2018-11-25T17:33:29.800Z,62.02
2018-11-25T17:36:35.383Z,63.97
2018-11-25T17:39:39.980Z,63.01
2018-11-25T17:42:45.825Z,62.45
2018-11-25T17:45:50.481Z,62.67
2018-11-25T17:48:55.145Z,63.02
2018-11-25T17:52:00.564Z,64.96
2018-11-25T17:55:05.744Z,63.50
2018-11-25T17:58:11.220Z,63.19
2018-11-25T18:01:15.823Z,63.40
2018-11-25T18:04:20.468Z,63.35
2018-11-25T18:07:25.121Z,63.57
2018-11-25T18:10:29.826Z,64.33
2018-11-25T18:13:36.750Z,63.67
2018-11-25T18:16:41.352Z,63.88
2018-11-25T18:19:45.935Z,64.17
2018-11-25T18:22:50.875Z,63.51
2018-11-25T18:25:55.527Z,63.26
2018-11-25T18:29:00.114Z,63.07
2018-11-25T18:32:04.818Z,63.05
2018-11-25T18:35:10.509Z,63.42
2018-11-25T18:38:15.185Z,62.82
2018-11-25T18:41:19.878Z,63.61
2018-11-25T18:44:24.776Z,64.04
2018-11-25T18:47:29.473Z,63.50
2018-11-25T18:50:34.029Z,62.77
2018-11-25T18:53:38.664Z,63.22
2018-11-25T18:56:43.273Z,62.80
2018-11-25T18:59:50.080Z,62.21
2018-11-25T19:02:54.663Z,62.96
2018-11-25T19:05:59.247Z,62.86
2018-11-25T19:09:04.154Z,63.15
2018-11-25T19:12:08.743Z,63.47
2018-11-25T19:15:15.746Z,63.39
2018-11-25T19:18:20.339Z,63.50
2018-11-25T19:21:24.877Z,63.50
2018-11-25T19:24:29.596Z,63.26
2018-11-25T19:27:34.153Z,63.50
2018-11-25T19:30:38.705Z,63.06
2018-11-25T19:33:43.355Z,62.71
2018-11-25T19:36:49.149Z,62.76
2018-11-25T19:39:53.691Z,62.41
2018-11-25T19:43:03.569Z,63.18
2018-11-25T19:46:08.148Z,63.54
2018-11-25T19:49:13.151Z,63.26
2018-11-25T19:52:17.932Z,63.30
2018-11-25T19:55:25.555Z,63.68
2018-11-25T19:58:30.831Z,63.51
2018-11-25T20:01:35.527Z,63.54
2018-11-25T20:04:40.231Z,63.62
2018-11-25T20:07:45.391Z,63.65
2018-11-25T20:10:50.005Z,63.75
2018-11-25T20:13:54.594Z,62.96
2018-11-25T20:17:04.439Z,63.21
2018-11-25T20:20:12.097Z,63.35
2018-11-25T20:23:16.836Z,62.84
2018-11-25T20:26:21.431Z,62.25
2018-11-25T20:29:26.000Z,62.17
2018-11-25T20:32:35.645Z,62.66
2018-11-25T20:35:40.596Z,62.53
2018-11-25T20:38:50.381Z,63.46
2018-11-25T20:41:54.924Z,63.71
2018-11-25T20:44:59.445Z,64.02
2018-11-25T20:48:04.108Z,63.60
2018-11-25T20:51:08.722Z,62.92
2018-11-25T20:54:13.398Z,63.32
2018-11-25T20:57:18.019Z,62.94
2018-11-25T21:00:23.844Z,62.82
2018-11-25T21:03:28.480Z,62.78
2018-11-25T21:06:33.019Z,62.98
2018-11-25T21:09:37.635Z,62.92
2018-11-25T21:12:43.084Z,62.57
2018-11-25T21:15:47.721Z,62.60
2018-11-25T21:18:52.253Z,62.95
2018-11-25T21:21:56.797Z,62.71
2018-11-25T21:25:01.442Z,63.11
2018-11-25T21:28:06.091Z,63.53
2018-11-25T21:31:10.677Z,63.38
2018-11-25T21:34:15.267Z,63.52
2018-11-25T21:37:19.829Z,63.11
2018-11-25T21:40:25.414Z,62.95
2018-11-25T21:43:30.160Z,63.08
2018-11-25T21:46:34.848Z,63.36
2018-11-25T21:49:39.381Z,63.49
2018-11-25T21:52:43.948Z,63.93
2018-11-25T21:58:53.132Z,63.65
2018-11-25T22:01:57.708Z,63.74
2018-11-25T22:05:02.250Z,65.24
2018-11-25T22:08:07.049Z,64.14
2018-11-25T22:11:11.655Z,63.86
2018-11-25T22:14:16.193Z,63.98
2018-11-25T22:17:20.807Z,63.62
2018-11-25T22:20:25.372Z,64.28
2018-11-25T22:23:29.966Z,64.91
2018-11-25T22:26:34.531Z,63.80
2018-11-25T22:29:39.142Z,64.25
2018-11-25T22:32:43.708Z,63.76
2018-11-25T22:35:48.356Z,63.82
2018-11-25T22:38:52.922Z,64.14
2018-11-25T22:41:57.497Z,63.71
2018-11-25T22:45:02.182Z,63.64
2018-11-25T22:48:06.949Z,63.19
2018-11-25T22:51:11.864Z,63.37
2018-11-25T22:54:16.398Z,63.35
2018-11-25T22:57:20.972Z,63.47
2018-11-25T23:00:33.985Z,63.56
2018-11-25T23:03:38.581Z,62.84
2018-11-25T23:06:54.200Z,63.30
2018-11-25T23:09:58.771Z,65.37
2018-11-25T23:13:03.428Z,64.92
2018-11-25T23:16:07.964Z,64.90
2018-11-25T23:19:12.619Z,64.67
2018-11-25T23:22:17.249Z,64.83
2018-11-25T23:25:21.911Z,64.47
2018-11-25T23:28:26.512Z,64.68
2018-11-25T23:31:31.127Z,66.30
2018-11-25T23:34:35.665Z,65.13
2018-11-25T23:37:40.319Z,63.51
2018-11-25T23:40:44.910Z,63.02
2018-11-25T23:43:49.480Z,63.29
2018-11-25T23:46:54.091Z,62.87
2018-11-25T23:49:58.638Z,63.50
2018-11-25T23:53:03.259Z,63.13
2018-11-25T23:56:07.803Z,65.54
2018-11-25T23:59:12.328Z,64.16
